createdAt,value
2018-10-18T00:00:26.450Z,9.35
2018-10-18T00:01:26.323Z,9.32
2018-10-18T00:02:26.194Z,9.30
2018-10-18T00:03:26.162Z,9.30
2018-10-18T00:04:25.940Z,9.30
2018-10-18T00:05:25.818Z,9.46
2018-10-18T00:06:25.688Z,9.46
2018-10-18T00:07:25.561Z,9.34
2018-10-18T00:08:25.433Z,9.42
2018-10-18T00:09:25.309Z,9.42
2018-10-18T00:10:25.178Z,9.34
2018-10-18T00:11:25.055Z,9.38
2018-10-18T00:12:24.927Z,9.40
2018-10-18T00:13:24.800Z,9.49
2018-10-18T00:14:24.673Z,9.45
2018-10-18T00:15:24.547Z,9.42
2018-10-18T00:16:24.419Z,9.40
2018-10-18T00:17:24.293Z,9.45
2018-10-18T00:18:24.169Z,9.45
2018-10-18T00:19:24.038Z,9.30
2018-10-18T00:20:23.914Z,9.32
2018-10-18T00:21:23.785Z,9.39
2018-10-18T00:22:23.661Z,9.31
2018-10-18T00:23:23.534Z,9.38
2018-10-18T00:24:23.406Z,9.39
2018-10-18T00:25:23.278Z,9.28
2018-10-18T00:26:23.151Z,9.31
2018-10-18T00:27:23.023Z,9.24
2018-10-18T00:28:22.900Z,9.20
2018-10-18T00:29:22.771Z,9.16
2018-10-18T00:30:22.644Z,9.20
2018-10-18T00:31:22.518Z,9.13
2018-10-18T00:32:22.394Z,9.06
2018-10-18T00:33:22.264Z,9.15
2018-10-18T00:34:22.139Z,9.16
2018-10-18T00:35:22.010Z,9.13
2018-10-18T00:36:21.885Z,9.34
2018-10-18T00:37:21.757Z,9.43
2018-10-18T00:38:21.630Z,9.39
2018-10-18T00:39:21.503Z,9.32
2018-10-18T00:40:21.379Z,9.45
2018-10-18T00:41:21.249Z,9.35
2018-10-18T00:42:21.124Z,9.30
2018-10-18T00:43:20.997Z,9.25
2018-10-18T00:44:20.871Z,9.23
2018-10-18T00:45:20.745Z,9.12
2018-10-18T00:46:20.620Z,9.21
2018-10-18T00:47:20.490Z,9.21
2018-10-18T00:48:20.365Z,9.21
2018-10-18T00:49:20.233Z,9.15
2018-10-18T00:50:20.114Z,9.23
2018-10-18T00:51:19.983Z,9.02
2018-10-18T00:52:19.854Z,9.10
2018-10-18T00:53:19.726Z,9.06
2018-10-18T00:54:19.607Z,9.06
2018-10-18T00:55:19.473Z,9.04
2018-10-18T00:56:19.345Z,9.12
2018-10-18T00:57:19.219Z,9.04
2018-10-18T00:58:19.094Z,9.12
2018-10-18T00:59:18.969Z,9.04
2018-10-18T01:00:18.917Z,9.10
2018-10-18T01:01:18.708Z,9.04
2018-10-18T01:02:18.668Z,9.06
2018-10-18T01:03:18.464Z,9.04
2018-10-18T01:04:18.330Z,8.97
2018-10-18T01:05:18.202Z,8.93
2018-10-18T01:06:18.109Z,8.86
2018-10-18T01:07:17.953Z,8.86
2018-10-18T01:08:17.902Z,8.96
2018-10-18T01:09:17.694Z,8.96
2018-10-18T01:10:17.569Z,8.94
2018-10-18T01:11:17.443Z,8.91
2018-10-18T01:12:17.488Z,8.99
2018-10-18T01:13:17.186Z,9.04
2018-10-18T01:14:17.167Z,9.06
2018-10-18T01:15:16.932Z,9.02
2018-10-18T01:16:16.805Z,9.09
2018-10-18T01:17:16.679Z,9.23
2018-10-18T01:18:16.687Z,9.20
2018-10-18T01:19:16.424Z,9.27
2018-10-18T01:20:16.424Z,9.28
2018-10-18T01:21:16.172Z,9.25
2018-10-18T01:22:16.045Z,9.21
2018-10-18T01:23:15.917Z,9.12
2018-10-18T01:24:15.869Z,9.05
2018-10-18T01:25:15.663Z,9.10
2018-10-18T01:26:15.566Z,9.10
2018-10-18T01:27:15.407Z,9.09
2018-10-18T01:28:15.281Z,9.06
2018-10-18T01:29:15.157Z,9.10
2018-10-18T01:30:15.199Z,9.06
2018-10-18T01:31:14.899Z,9.05
2018-10-18T01:32:14.854Z,9.09
2018-10-18T01:33:14.645Z,9.13
2018-10-18T01:34:14.524Z,9.15
2018-10-18T01:35:14.389Z,9.24
2018-10-18T01:36:14.410Z,9.13
2018-10-18T01:37:14.135Z,9.09
2018-10-18T01:38:14.083Z,9.06
2018-10-18T01:39:14.603Z,9.09
2018-10-18T01:40:13.756Z,9.06
2018-10-18T01:41:13.627Z,9.04
2018-10-18T01:42:13.567Z,9.06
2018-10-18T01:43:13.376Z,9.06
2018-10-18T01:44:13.311Z,9.06
2018-10-18T01:45:13.119Z,9.04
2018-10-18T01:46:12.992Z,9.25
2018-10-18T01:47:12.868Z,9.24
2018-10-18T01:48:12.919Z,9.23
2018-10-18T01:49:12.612Z,9.23
2018-10-18T01:50:12.570Z,9.16
2018-10-18T01:51:12.357Z,9.20
2018-10-18T01:52:12.230Z,9.06
2018-10-18T01:53:12.102Z,9.09
2018-10-18T01:54:12.067Z,9.09
2018-10-18T01:55:11.848Z,9.02
2018-10-18T01:56:11.904Z,9.10
2018-10-18T01:57:11.594Z,9.06
2018-10-18T01:58:11.471Z,9.04
2018-10-18T01:59:11.340Z,8.99
2018-10-18T02:00:11.298Z,8.90
2018-10-18T02:01:11.089Z,8.88
2018-10-18T02:02:11.069Z,8.93
2018-10-18T02:03:10.834Z,8.93
2018-10-18T02:04:10.707Z,8.90
2018-10-18T02:05:10.582Z,8.86
2018-10-18T02:06:10.531Z,8.88
2018-10-18T02:07:10.324Z,8.88
2018-10-18T02:08:10.621Z,8.96
2018-10-18T02:09:10.074Z,8.99
2018-10-18T02:10:09.962Z,9.06
2018-10-18T02:11:09.819Z,9.02
2018-10-18T02:12:09.766Z,9.10
2018-10-18T02:13:09.569Z,9.20
2018-10-18T02:14:09.436Z,9.28
2018-10-18T02:15:09.310Z,9.23
2018-10-18T02:16:09.186Z,9.05
2018-10-18T02:17:09.056Z,9.06
2018-10-18T02:18:09.014Z,8.99
2018-10-18T02:19:08.817Z,8.94
2018-10-18T02:20:08.674Z,8.96
2018-10-18T02:21:08.549Z,9.02
2018-10-18T02:22:08.420Z,9.01
2018-10-18T02:23:08.293Z,8.94
2018-10-18T02:24:08.254Z,8.90
2018-10-18T02:25:08.076Z,8.97
2018-10-18T02:26:07.913Z,8.99
2018-10-18T02:27:07.786Z,8.96
2018-10-18T02:28:07.659Z,8.96
2018-10-18T02:29:07.530Z,8.91
2018-10-18T02:30:07.502Z,8.93
2018-10-18T02:31:07.275Z,8.88
2018-10-18T02:32:07.153Z,8.90
2018-10-18T02:33:07.022Z,8.81
2018-10-18T02:34:06.895Z,8.75
2018-10-18T02:35:06.768Z,8.73
2018-10-18T02:36:06.736Z,8.72
2018-10-18T02:37:06.609Z,8.73
2018-10-18T02:38:06.386Z,8.99
2018-10-18T02:39:06.262Z,9.01
2018-10-18T02:40:06.134Z,9.10
2018-10-18T02:41:06.006Z,9.10
2018-10-18T02:42:05.915Z,9.09
2018-10-18T02:43:05.753Z,9.20
2018-10-18T02:44:05.625Z,9.20
2018-10-18T02:45:05.499Z,9.20
2018-10-18T02:46:05.369Z,9.21
2018-10-18T02:47:05.245Z,9.10
2018-10-18T02:48:05.148Z,9.10
2018-10-18T02:49:04.990Z,9.10
2018-10-18T02:50:04.862Z,9.01
2018-10-18T02:51:04.736Z,9.04
2018-10-18T02:52:04.615Z,9.06
2018-10-18T02:53:04.480Z,9.06
2018-10-18T02:54:04.406Z,9.04
2018-10-18T02:55:04.230Z,9.05
2018-10-18T02:56:04.102Z,9.12
2018-10-18T02:57:03.974Z,9.13
2018-10-18T02:58:03.848Z,9.04
2018-10-18T02:59:03.721Z,9.06
2018-10-18T03:00:03.629Z,9.02
2018-10-18T03:01:03.466Z,9.06
2018-10-18T03:02:03.340Z,9.06
2018-10-18T03:03:03.212Z,9.18
2018-10-18T03:04:03.086Z,9.15
2018-10-18T03:05:02.956Z,9.05
2018-10-18T03:06:02.847Z,9.15
2018-10-18T03:07:02.707Z,9.24
2018-10-18T03:08:02.576Z,9.32
2018-10-18T03:09:02.454Z,9.39
2018-10-18T03:10:02.323Z,9.40
2018-10-18T03:11:02.196Z,9.35
2018-10-18T03:12:02.093Z,9.32
2018-10-18T03:13:01.942Z,9.25
2018-10-18T03:14:01.817Z,9.27
2018-10-18T03:15:01.690Z,9.21
2018-10-18T03:16:01.728Z,9.23
2018-10-18T03:17:01.436Z,9.30
2018-10-18T03:18:01.334Z,9.30
2018-10-18T03:19:01.182Z,9.32
2018-10-18T03:20:01.055Z,9.27
2018-10-18T03:21:00.928Z,9.32
2018-10-18T03:22:00.801Z,9.35
2018-10-18T03:23:00.676Z,9.23
2018-10-18T03:24:00.595Z,9.24
2018-10-18T03:25:00.421Z,9.27
2018-10-18T03:26:00.295Z,9.23
2018-10-18T03:27:00.168Z,9.27
2018-10-18T03:28:00.040Z,9.20
2018-10-18T03:28:59.913Z,9.27
2018-10-18T03:29:59.823Z,9.15
2018-10-18T03:30:59.659Z,9.21
2018-10-18T03:31:59.534Z,9.27
2018-10-18T03:32:59.406Z,9.27
2018-10-18T03:33:59.279Z,9.40
2018-10-18T03:34:59.150Z,9.27
2018-10-18T03:35:59.036Z,9.38
2018-10-18T03:36:58.895Z,9.39
2018-10-18T03:37:58.771Z,9.34
2018-10-18T03:38:58.643Z,9.24
2018-10-18T03:39:58.518Z,9.31
2018-10-18T03:40:58.391Z,9.18
2018-10-18T03:41:58.328Z,9.30
2018-10-18T03:42:58.136Z,9.23
2018-10-18T03:43:58.013Z,9.18
2018-10-18T03:44:57.881Z,9.28
2018-10-18T03:45:57.756Z,9.43
2018-10-18T03:46:57.630Z,9.30
2018-10-18T03:47:57.563Z,9.38
2018-10-18T03:48:57.375Z,9.30
2018-10-18T03:49:57.248Z,9.32
2018-10-18T03:50:57.121Z,9.27
2018-10-18T03:51:56.994Z,9.30
2018-10-18T03:52:56.867Z,9.25
2018-10-18T03:53:56.780Z,9.31
2018-10-18T03:54:56.615Z,9.23
2018-10-18T03:55:56.488Z,9.27
2018-10-18T03:56:56.361Z,9.23
2018-10-18T03:57:56.233Z,9.28
2018-10-18T03:58:56.109Z,9.20
2018-10-18T03:59:56.041Z,9.13
2018-10-18T04:00:55.853Z,9.34
2018-10-18T04:01:55.726Z,9.25
2018-10-18T04:02:55.599Z,9.20
2018-10-18T04:03:55.472Z,9.23
2018-10-18T04:04:55.344Z,9.05
2018-10-18T04:05:55.227Z,9.12
2018-10-18T04:06:55.092Z,9.13
2018-10-18T04:07:54.974Z,9.06
2018-10-18T04:08:54.836Z,9.10
2018-10-18T04:09:54.709Z,9.06
2018-10-18T04:10:54.582Z,9.02
2018-10-18T04:11:54.469Z,9.09
2018-10-18T04:12:54.426Z,9.01
2018-10-18T04:13:54.200Z,9.10
2018-10-18T04:14:54.074Z,9.06
2018-10-18T04:15:53.947Z,9.09
2018-10-18T04:16:53.821Z,9.15
2018-10-18T04:17:53.827Z,9.25
2018-10-18T04:18:53.567Z,9.27
2018-10-18T04:19:53.439Z,9.38
2018-10-18T04:20:53.318Z,9.27
2018-10-18T04:21:53.184Z,9.28
2018-10-18T04:22:53.059Z,9.32
2018-10-18T04:23:52.963Z,9.28
2018-10-18T04:24:52.804Z,9.39
2018-10-18T04:25:52.681Z,9.32
2018-10-18T04:26:52.550Z,9.32
2018-10-18T04:27:52.425Z,9.38
2018-10-18T04:28:52.296Z,9.30
2018-10-18T04:29:52.192Z,9.21
2018-10-18T04:30:52.045Z,9.21
2018-10-18T04:31:51.918Z,9.18
2018-10-18T04:32:51.802Z,9.18
2018-10-18T04:33:52.668Z,9.16
2018-10-18T04:34:51.535Z,9.02
2018-10-18T04:35:51.411Z,9.06
2018-10-18T04:36:51.280Z,9.06
2018-10-18T04:37:51.174Z,9.09
2018-10-18T04:38:51.027Z,9.04
2018-10-18T04:39:50.901Z,9.25
2018-10-18T04:40:50.771Z,9.18
2018-10-18T04:41:50.648Z,9.25
2018-10-18T04:42:50.521Z,9.23
2018-10-18T04:43:50.396Z,9.21
2018-10-18T04:44:50.270Z,9.28
2018-10-18T04:45:50.138Z,9.27
2018-10-18T04:46:50.017Z,9.25
2018-10-18T04:47:50.007Z,9.23
2018-10-18T04:48:49.826Z,9.27
2018-10-18T04:49:49.631Z,9.31
2018-10-18T04:50:49.504Z,9.25
2018-10-18T04:51:49.380Z,9.21
2018-10-18T04:52:49.303Z,9.23
2018-10-18T04:53:49.136Z,9.27
2018-10-18T04:54:48.994Z,9.25
2018-10-18T04:55:48.869Z,9.25
2018-10-18T04:56:49.002Z,9.21
2018-10-18T04:57:48.617Z,9.13
2018-10-18T04:58:48.489Z,9.27
2018-10-18T04:59:48.364Z,9.20
2018-10-18T05:00:48.240Z,9.13
2018-10-18T05:01:48.108Z,9.10
2018-10-18T05:02:48.735Z,9.01
2018-10-18T05:03:47.855Z,9.04
2018-10-18T05:04:47.741Z,9.04
2018-10-18T05:05:47.600Z,9.18
2018-10-18T05:06:47.472Z,9.20
2018-10-18T05:07:47.352Z,9.21
2018-10-18T05:08:47.219Z,9.24
2018-10-18T05:09:47.093Z,9.16
2018-10-18T05:10:46.964Z,9.25
2018-10-18T05:11:46.838Z,9.13
2018-10-18T05:12:46.781Z,9.04
2018-10-18T05:13:46.582Z,9.04
2018-10-18T05:14:46.457Z,9.04
2018-10-18T05:15:46.332Z,9.10
2018-10-18T05:16:46.204Z,9.06
2018-10-18T05:17:46.076Z,9.12
2018-10-18T05:18:45.952Z,9.04
2018-10-18T05:19:45.824Z,9.05
2018-10-18T05:20:45.695Z,9.10
2018-10-18T05:21:45.571Z,9.13
2018-10-18T05:22:45.442Z,9.23
2018-10-18T05:23:45.340Z,9.15
2018-10-18T05:24:45.189Z,9.13
2018-10-18T05:25:45.063Z,9.23
2018-10-18T05:26:44.935Z,9.32
2018-10-18T05:27:44.809Z,9.32
2018-10-18T05:28:44.682Z,9.34
2018-10-18T05:29:44.554Z,9.43
2018-10-18T05:30:44.429Z,9.30
2018-10-18T05:31:44.705Z,9.39
2018-10-18T05:32:44.175Z,9.32
2018-10-18T05:33:44.045Z,9.32
2018-10-18T05:34:43.921Z,9.28
2018-10-18T05:35:43.792Z,9.43
2018-10-18T05:36:43.684Z,9.46
2018-10-18T05:37:43.638Z,9.45
2018-10-18T05:38:43.411Z,9.43
2018-10-18T05:39:43.294Z,9.43
2018-10-18T05:40:43.161Z,9.43
2018-10-18T05:41:43.029Z,9.46
2018-10-18T05:42:42.903Z,9.42
2018-10-18T05:43:42.779Z,9.42
2018-10-18T05:44:42.653Z,9.39
2018-10-18T05:45:42.524Z,9.45
2018-10-18T05:46:42.488Z,9.45
2018-10-18T05:47:42.269Z,9.43
2018-10-18T05:48:42.141Z,9.46
2018-10-18T05:49:42.016Z,9.34
2018-10-18T05:50:41.887Z,9.43
2018-10-18T05:51:41.761Z,9.42
2018-10-18T05:52:41.634Z,9.38
2018-10-18T05:53:41.570Z,9.28
2018-10-18T05:54:41.380Z,9.25
2018-10-18T05:55:41.255Z,9.35
2018-10-18T05:56:41.128Z,9.35
2018-10-18T05:57:40.999Z,9.39
2018-10-18T05:58:40.873Z,9.34
2018-10-18T05:59:40.749Z,9.31
2018-10-18T06:00:40.705Z,9.35
2018-10-18T06:01:40.495Z,9.38
2018-10-18T06:02:40.370Z,9.28
2018-10-18T06:03:40.240Z,9.32
2018-10-18T06:04:40.115Z,9.34
2018-10-18T06:05:39.987Z,9.38
2018-10-18T06:06:39.861Z,9.28
2018-10-18T06:07:39.735Z,9.32
2018-10-18T06:08:39.606Z,9.32
2018-10-18T06:09:39.482Z,9.34
2018-10-18T06:10:39.456Z,9.32
2018-10-18T06:11:39.282Z,9.40
2018-10-18T06:12:39.101Z,9.43
2018-10-18T06:13:38.975Z,9.31
2018-10-18T06:14:38.845Z,9.39
2018-10-18T06:15:38.720Z,9.31
2018-10-18T06:16:38.593Z,9.38
2018-10-18T06:17:38.467Z,9.24
2018-10-18T06:18:38.342Z,9.32
2018-10-18T06:19:38.212Z,9.28
2018-10-18T06:20:38.083Z,9.30
2018-10-18T06:21:37.957Z,9.34
2018-10-18T06:22:37.856Z,9.35
2018-10-18T06:23:37.714Z,9.38
2018-10-18T06:24:37.577Z,9.43
2018-10-18T06:25:37.452Z,9.49
2018-10-18T06:26:37.324Z,9.42
2018-10-18T06:27:37.198Z,9.40
2018-10-18T06:28:37.069Z,9.40
2018-10-18T06:29:36.943Z,9.48
2018-10-18T06:30:36.820Z,9.45
2018-10-18T06:31:36.691Z,9.48
2018-10-18T06:32:36.562Z,9.57
2018-10-18T06:33:36.436Z,9.57
2018-10-18T06:34:36.315Z,9.57
2018-10-18T06:35:36.185Z,9.58
2018-10-18T06:36:36.056Z,9.58
2018-10-18T06:37:35.974Z,9.57
2018-10-18T06:38:35.805Z,9.58
2018-10-18T06:39:35.679Z,9.57
2018-10-18T06:40:35.551Z,9.56
2018-10-18T06:41:35.428Z,9.63
2018-10-18T06:42:35.303Z,9.61
2018-10-18T06:43:35.174Z,9.75
2018-10-18T06:44:35.047Z,9.76
2018-10-18T06:45:34.921Z,9.93
2018-10-18T06:46:34.798Z,10.03
2018-10-18T06:47:34.780Z,10.14
2018-10-18T06:48:34.542Z,10.30
2018-10-18T06:49:34.457Z,10.28
2018-10-18T06:50:34.292Z,10.40
2018-10-18T06:51:34.165Z,10.42
2018-10-18T06:52:34.045Z,10.43
2018-10-18T06:53:33.915Z,10.39
2018-10-18T06:54:33.833Z,10.53
2018-10-18T06:55:33.661Z,10.58
2018-10-18T06:56:33.537Z,10.58
2018-10-18T06:57:33.406Z,10.60
2018-10-18T06:58:33.283Z,10.51
2018-10-18T06:59:33.155Z,10.44
2018-10-18T07:00:33.118Z,10.47
2018-10-18T07:01:32.904Z,10.51
2018-10-18T07:02:32.778Z,10.47
2018-10-18T07:03:32.655Z,10.51
2018-10-18T07:04:32.528Z,10.51
2018-10-18T07:05:32.402Z,10.63
2018-10-18T07:06:32.275Z,10.62
2018-10-18T07:07:32.153Z,10.62
2018-10-18T07:08:32.109Z,10.62
2018-10-18T07:09:31.902Z,10.66
2018-10-18T07:10:31.864Z,10.52
2018-10-18T07:11:31.674Z,10.46
2018-10-18T07:12:31.521Z,10.39
2018-10-18T07:13:31.396Z,10.52
2018-10-18T07:14:31.270Z,10.56
2018-10-18T07:15:31.144Z,10.63
2018-10-18T07:16:31.038Z,10.59
2018-10-18T07:17:30.955Z,10.60
2018-10-18T07:18:33.305Z,10.74
2018-10-18T07:19:30.683Z,10.77
2018-10-18T07:20:30.518Z,10.73
2018-10-18T07:21:30.393Z,10.77
2018-10-18T07:22:30.268Z,10.92
2018-10-18T07:23:30.144Z,10.98
2018-10-18T07:24:30.018Z,11.10
2018-10-18T07:25:30.027Z,11.14
2018-10-18T07:26:29.806Z,11.16
2018-10-18T07:27:29.642Z,11.17
2018-10-18T07:28:29.515Z,11.10
2018-10-18T07:29:29.389Z,11.17
2018-10-18T07:30:29.266Z,11.21
2018-10-18T07:31:29.144Z,11.28
2018-10-18T07:32:29.018Z,11.32
2018-10-18T07:33:28.889Z,11.32
2018-10-18T07:34:28.766Z,11.38
2018-10-18T07:35:28.639Z,11.36
2018-10-18T07:36:28.513Z,11.27
2018-10-18T07:37:28.388Z,11.38
2018-10-18T07:38:28.268Z,11.28
2018-10-18T07:39:29.764Z,11.38
2018-10-18T07:40:28.013Z,11.25
2018-10-18T07:41:27.889Z,11.29
2018-10-18T07:42:27.775Z,11.24
2018-10-18T07:43:27.661Z,11.19
2018-10-18T07:44:27.665Z,11.32
2018-10-18T07:45:27.416Z,11.39
2018-10-18T07:46:27.424Z,11.52
2018-10-18T07:47:27.149Z,11.59
2018-10-18T07:48:27.017Z,11.46
2018-10-18T07:49:26.893Z,11.43
2018-10-18T07:50:26.765Z,11.46
2018-10-18T07:51:26.660Z,11.43
2018-10-18T07:52:26.513Z,11.46
2018-10-18T07:53:26.411Z,11.54
2018-10-18T07:54:26.272Z,11.64
2018-10-18T07:55:26.142Z,11.70
2018-10-18T07:56:26.014Z,11.70
2018-10-18T07:57:26.870Z,11.89
2018-10-18T07:58:25.765Z,12.12
2018-10-18T07:59:25.642Z,12.08
2018-10-18T08:00:25.599Z,12.11
2018-10-18T08:01:25.394Z,12.20
2018-10-18T08:02:25.274Z,12.21
2018-10-18T08:03:25.141Z,12.11
2018-10-18T08:04:25.018Z,12.08
2018-10-18T08:05:24.893Z,12.15
2018-10-18T08:06:24.769Z,12.20
2018-10-18T08:07:24.644Z,12.23
2018-10-18T08:08:24.633Z,12.37
2018-10-18T08:09:24.393Z,12.31
2018-10-18T08:10:24.271Z,12.44
2018-10-18T08:11:24.147Z,12.52
2018-10-18T08:12:24.022Z,12.62
2018-10-18T08:13:23.897Z,12.74
2018-10-18T08:14:23.774Z,12.67
2018-10-18T08:15:23.655Z,12.71
2018-10-18T08:16:23.530Z,12.77
2018-10-18T08:17:23.417Z,12.81
2018-10-18T08:18:23.281Z,12.81
2018-10-18T08:19:23.155Z,12.84
2018-10-18T08:20:23.071Z,12.88
2018-10-18T08:21:23.082Z,12.78
2018-10-18T08:22:22.819Z,12.89
2018-10-18T08:23:22.663Z,12.75
2018-10-18T08:24:22.535Z,12.88
2018-10-18T08:25:22.411Z,12.89
2018-10-18T08:26:22.877Z,13.06
2018-10-18T08:27:22.162Z,13.03
2018-10-18T08:28:22.210Z,12.97
2018-10-18T08:29:21.914Z,13.03
2018-10-18T08:30:21.789Z,12.92
2018-10-18T08:31:21.812Z,13.00
2018-10-18T08:32:21.561Z,13.03
2018-10-18T08:33:21.418Z,13.04
2018-10-18T08:34:21.295Z,13.09
2018-10-18T08:35:21.171Z,13.14
2018-10-18T08:36:21.047Z,13.15
2018-10-18T08:37:20.985Z,13.18
2018-10-18T08:38:20.923Z,13.18
2018-10-18T08:39:20.678Z,13.29
2018-10-18T08:40:20.557Z,13.33
2018-10-18T08:41:20.426Z,13.32
2018-10-18T08:42:20.313Z,13.30
2018-10-18T08:43:20.185Z,13.47
2018-10-18T08:44:20.122Z,13.52
2018-10-18T08:45:19.937Z,13.67
2018-10-18T08:46:19.810Z,13.91
2018-10-18T08:47:19.689Z,13.88
2018-10-18T08:48:19.565Z,13.99
2018-10-18T08:49:19.440Z,13.98
2018-10-18T08:50:19.538Z,13.92
2018-10-18T08:51:19.198Z,13.83
2018-10-18T08:52:19.072Z,13.89
2018-10-18T08:53:18.949Z,13.96
2018-10-18T08:54:19.132Z,14.10
2018-10-18T08:55:19.013Z,14.19
2018-10-18T08:56:18.575Z,14.35
2018-10-18T08:57:18.458Z,14.43
2018-10-18T08:58:18.370Z,14.56
2018-10-18T08:59:18.261Z,14.49
2018-10-18T09:00:18.082Z,14.62
2018-10-18T09:01:18.061Z,14.67
2018-10-18T09:02:17.899Z,14.74
2018-10-18T09:03:17.714Z,14.71
2018-10-18T09:04:17.594Z,14.95
2018-10-18T09:05:17.469Z,14.99
2018-10-18T09:06:17.482Z,15.03
2018-10-18T09:07:17.266Z,15.21
2018-10-18T09:08:20.788Z,15.30
2018-10-18T09:09:17.161Z,15.30
2018-10-18T09:10:16.854Z,15.15
2018-10-18T09:11:16.737Z,15.31
2018-10-18T09:12:16.612Z,15.21
2018-10-18T09:13:16.558Z,15.35
2018-10-18T09:14:16.388Z,15.43
2018-10-18T09:15:16.246Z,15.57
2018-10-18T09:16:16.122Z,15.64
2018-10-18T09:17:15.999Z,15.64
2018-10-18T09:18:15.878Z,15.74
2018-10-18T09:19:15.890Z,15.64
2018-10-18T09:20:15.630Z,15.43
2018-10-18T09:21:15.508Z,15.39
2018-10-18T09:22:15.390Z,15.64
2018-10-18T09:23:15.264Z,15.54
2018-10-18T09:24:15.142Z,15.64
2018-10-18T09:25:15.171Z,15.70
2018-10-18T09:26:14.898Z,15.61
2018-10-18T09:27:14.776Z,15.72
2018-10-18T09:28:14.675Z,15.85
2018-10-18T09:29:14.551Z,16.06
2018-10-18T09:30:14.414Z,16.09
2018-10-18T09:31:14.310Z,16.23
2018-10-18T09:32:14.166Z,16.49
2018-10-18T09:33:14.044Z,16.60
2018-10-18T09:34:13.926Z,16.83
2018-10-18T09:35:13.803Z,16.31
2018-10-18T09:36:13.680Z,16.37
2018-10-18T09:37:13.630Z,16.34
2018-10-18T09:38:13.481Z,16.48
2018-10-18T09:39:15.295Z,16.52
2018-10-18T09:40:13.210Z,16.56
2018-10-18T09:41:14.128Z,16.60
2018-10-18T09:42:12.985Z,16.62
2018-10-18T09:43:12.857Z,16.83
2018-10-18T09:44:12.748Z,16.85
2018-10-18T09:45:15.299Z,16.90
2018-10-18T09:46:12.508Z,17.03
2018-10-18T09:47:12.342Z,17.13
2018-10-18T09:48:12.220Z,17.25
2018-10-18T09:49:12.160Z,16.95
2018-10-18T09:50:11.980Z,16.58
2018-10-18T09:51:13.798Z,16.45
2018-10-18T09:52:11.737Z,16.56
2018-10-18T09:53:11.619Z,16.58
2018-10-18T09:54:11.515Z,16.89
2018-10-18T09:55:11.457Z,17.11
2018-10-18T09:56:11.326Z,17.33
2018-10-18T09:57:11.134Z,17.11
2018-10-18T09:58:11.011Z,17.25
2018-10-18T09:59:12.801Z,17.00
2018-10-18T10:00:10.768Z,17.04
2018-10-18T10:01:10.717Z,17.04
2018-10-18T10:02:10.528Z,17.22
2018-10-18T10:03:10.412Z,17.40
2018-10-18T10:04:10.296Z,17.29
2018-10-18T10:05:10.167Z,17.06
2018-10-18T10:06:10.045Z,17.10
2018-10-18T10:07:10.043Z,17.32
2018-10-18T10:08:09.804Z,17.00
2018-10-18T10:09:09.682Z,17.15
2018-10-18T10:10:09.561Z,17.29
2018-10-18T10:11:09.441Z,17.36
2018-10-18T10:12:09.321Z,17.57
2018-10-18T10:13:09.360Z,17.32
2018-10-18T10:14:09.081Z,17.25
2018-10-18T10:15:08.994Z,17.29
2018-10-18T10:16:08.837Z,17.30
2018-10-18T10:17:08.743Z,17.38
2018-10-18T10:18:08.654Z,17.46
2018-10-18T10:19:08.534Z,17.67
2018-10-18T10:20:08.354Z,17.59
2018-10-18T10:21:08.233Z,17.55
2018-10-18T10:22:08.113Z,17.69
2018-10-18T10:23:08.891Z,17.81
2018-10-18T10:24:07.883Z,17.87
2018-10-18T10:25:07.763Z,17.82
2018-10-18T10:26:07.632Z,17.67
2018-10-18T10:27:07.510Z,17.81
2018-10-18T10:28:07.389Z,17.51
2018-10-18T10:29:07.272Z,17.67
2018-10-18T10:30:07.166Z,17.62
2018-10-18T10:31:07.039Z,17.70
2018-10-18T10:32:06.907Z,17.92
2018-10-18T10:33:06.875Z,18.00
2018-10-18T10:34:06.665Z,18.03
2018-10-18T10:35:06.623Z,18.04
2018-10-18T10:36:06.425Z,18.13
2018-10-18T10:37:06.309Z,18.21
2018-10-18T10:38:06.183Z,18.07
2018-10-18T10:39:06.098Z,18.25
2018-10-18T10:40:05.997Z,18.19
2018-10-18T10:41:05.975Z,18.25
2018-10-18T10:42:05.756Z,18.34
2018-10-18T10:43:05.644Z,18.27
2018-10-18T10:44:05.546Z,18.21
2018-10-18T10:45:05.389Z,18.22
2018-10-18T10:46:05.273Z,18.28
2018-10-18T10:47:05.102Z,18.21
2018-10-18T10:48:05.030Z,18.17
2018-10-18T10:49:04.929Z,18.22
2018-10-18T10:50:04.752Z,18.09
2018-10-18T10:51:04.637Z,18.02
2018-10-18T10:52:04.935Z,18.07
2018-10-18T10:53:04.380Z,18.19
2018-10-18T10:54:04.315Z,18.24
2018-10-18T10:55:04.140Z,17.95
2018-10-18T10:56:04.068Z,17.63
2018-10-18T10:57:03.972Z,17.55
2018-10-18T10:58:03.837Z,17.55
2018-10-18T10:59:03.729Z,17.54
2018-10-18T11:00:03.564Z,17.76
2018-10-18T11:01:03.430Z,17.57
2018-10-18T11:02:03.357Z,17.66
2018-10-18T11:03:03.204Z,17.71
2018-10-18T11:04:03.058Z,17.78
2018-10-18T11:05:02.936Z,17.88
2018-10-18T11:06:02.933Z,17.99
2018-10-18T11:07:02.697Z,18.04
2018-10-18T11:08:02.635Z,17.87
2018-10-18T11:09:02.478Z,18.02
2018-10-18T11:10:02.334Z,17.94
2018-10-18T11:11:02.224Z,18.02
2018-10-18T11:12:02.198Z,18.21
2018-10-18T11:13:01.975Z,18.07
2018-10-18T11:14:01.862Z,18.10
2018-10-18T11:15:01.794Z,18.19
2018-10-18T11:16:01.615Z,18.31
2018-10-18T11:17:01.502Z,18.50
2018-10-18T11:18:01.386Z,18.44
2018-10-18T11:19:01.250Z,18.42
2018-10-18T11:20:01.146Z,18.17
2018-10-18T11:21:01.037Z,17.79
2018-10-18T11:22:00.893Z,17.97
2018-10-18T11:23:00.767Z,18.13
2018-10-18T11:24:00.704Z,18.18
2018-10-18T11:25:00.526Z,18.46
2018-10-18T11:26:00.449Z,18.49
2018-10-18T11:27:00.336Z,18.34
2018-10-18T11:28:00.167Z,18.18
2018-10-18T11:29:00.047Z,18.25
2018-10-18T11:29:59.948Z,18.42
2018-10-18T11:30:59.807Z,18.43
2018-10-18T11:31:59.698Z,18.46
2018-10-18T11:32:59.597Z,18.44
2018-10-18T11:33:59.450Z,18.44
2018-10-18T11:34:59.327Z,18.47
2018-10-18T11:35:59.244Z,18.47
2018-10-18T11:36:59.085Z,18.52
2018-10-18T11:37:59.032Z,17.99
2018-10-18T11:38:58.846Z,17.78
2018-10-18T11:39:58.725Z,17.92
2018-10-18T11:40:58.603Z,17.81
2018-10-18T11:41:58.488Z,17.55
2018-10-18T11:42:58.372Z,17.59
2018-10-18T11:43:58.253Z,17.69
2018-10-18T11:44:58.124Z,17.43
2018-10-18T11:45:58.005Z,17.62
2018-10-18T11:46:57.886Z,17.95
2018-10-18T11:47:57.824Z,18.13
2018-10-18T11:48:57.644Z,18.42
2018-10-18T11:49:57.551Z,18.47
2018-10-18T11:50:57.406Z,18.74
2018-10-18T11:51:57.321Z,18.44
2018-10-18T11:52:57.164Z,18.46
2018-10-18T11:53:57.071Z,18.43
2018-10-18T11:54:56.922Z,18.37
2018-10-18T11:55:56.837Z,18.15
2018-10-18T11:56:56.685Z,18.10
2018-10-18T11:57:56.564Z,18.18
2018-10-18T11:58:56.483Z,18.29
2018-10-18T11:59:56.323Z,18.33
2018-10-18T12:00:56.202Z,18.34
2018-10-18T12:01:56.135Z,18.29
2018-10-18T12:02:55.963Z,18.34
2018-10-18T12:03:55.847Z,18.40
2018-10-18T12:04:55.777Z,18.57
2018-10-18T12:05:55.601Z,18.73
2018-10-18T12:06:55.482Z,18.77
2018-10-18T12:07:55.406Z,18.82
2018-10-18T12:08:55.239Z,18.65
2018-10-18T12:09:55.120Z,18.70
2018-10-18T12:10:55.029Z,18.62
2018-10-18T12:11:54.879Z,18.64
2018-10-18T12:12:54.760Z,18.74
2018-10-18T12:13:54.671Z,18.73
2018-10-18T12:14:54.521Z,18.80
2018-10-18T12:15:54.402Z,18.84
2018-10-18T12:16:54.304Z,18.90
2018-10-18T12:17:54.163Z,18.95
2018-10-18T12:18:54.052Z,18.99
2018-10-18T12:19:53.921Z,18.70
2018-10-18T12:20:53.803Z,18.46
2018-10-18T12:21:53.685Z,18.42
2018-10-18T12:22:53.578Z,18.36
2018-10-18T12:23:53.444Z,18.33
2018-10-18T12:24:53.321Z,18.21
2018-10-18T12:25:53.214Z,18.12
2018-10-18T12:26:53.160Z,18.22
2018-10-18T12:27:52.959Z,18.15
2018-10-18T12:28:52.866Z,18.03
2018-10-18T12:29:52.722Z,17.97
2018-10-18T12:30:52.601Z,17.85
2018-10-18T12:31:52.483Z,17.78
2018-10-18T12:32:52.359Z,17.89
2018-10-18T12:33:52.239Z,18.12
2018-10-18T12:34:52.168Z,18.15
2018-10-18T12:35:52.008Z,18.46
2018-10-18T12:36:51.882Z,18.39
2018-10-18T12:37:51.785Z,18.43
2018-10-18T12:38:51.639Z,18.49
2018-10-18T12:39:51.521Z,18.49
2018-10-18T12:40:51.495Z,18.59
2018-10-18T12:41:51.368Z,18.44
2018-10-18T12:42:51.161Z,18.49
2018-10-18T12:43:51.036Z,18.67
2018-10-18T12:44:50.916Z,18.80
2018-10-18T12:45:50.824Z,18.70
2018-10-18T12:46:50.677Z,18.67
2018-10-18T12:47:50.557Z,18.70
2018-10-18T12:48:50.964Z,18.47
2018-10-18T12:49:50.316Z,18.44
2018-10-18T12:50:50.194Z,18.50
2018-10-18T12:51:50.073Z,18.49
2018-10-18T12:52:49.955Z,18.42
2018-10-18T12:53:49.836Z,18.70
2018-10-18T12:54:49.714Z,18.58
2018-10-18T12:55:49.595Z,18.68
2018-10-18T12:56:49.475Z,18.73
2018-10-18T12:57:49.356Z,18.68
2018-10-18T12:58:49.234Z,18.58
2018-10-18T12:59:49.114Z,18.43
2018-10-18T13:00:48.999Z,18.40
2018-10-18T13:01:48.927Z,18.27
2018-10-18T13:02:48.760Z,18.13
2018-10-18T13:03:48.633Z,18.33